Time;durP1;ratioP1;P1;durP2;ratioP2;P2;SDS_P1;SDS_P2;PMS_P1;PMS_P2;Temp;Humidity;BMP_temperature;BMP_pressure;BME280_temperature;BME280_humidity;BME280_pressure;Samples;Min_cycle;Max_cycle;Signal;HPM_P1;HPM_P2
2022/10/14 00:02:07;;;;;;;;;;;;;;;13.20;91.58;101483.41;5006393;28;19925;-73
2022/10/14 00:04:32;;;;;;;;;;;;;;;13.18;91.64;101479.91;5008928;28;20450;-73
2022/10/14 00:06:57;;;;;;;;;;;;;;;13.16;91.61;101477.22;5007544;28;19917;-71
2022/10/14 00:09:22;;;;;;;;;;;;;;;13.14;91.63;101473.69;5009290;28;19918;-71
2022/10/14 00:11:48;;;;;;;;;;;;;;;13.14;91.79;101478.06;5002158;28;20348;-71
2022/10/14 00:14:14;;;;;;;;;;;;;;;13.17;91.69;101483.34;5000477;28;20321;-71
2022/10/14 00:16:40;;;;;;;;;;;;;;;13.18;91.68;101487.75;4999074;28;19982;-71
2022/10/14 00:19:06;;;;;;;;;;;;;;;13.21;91.63;101485.19;4983727;28;19929;-71
2022/10/14 00:21:32;;;;;;;;;;;;;;;13.21;91.60;101475.59;5000637;28;19917;-71
2022/10/14 00:23:57;;;;;;;;;;;;;;;13.21;91.68;101479.97;5002104;28;19960;-71
2022/10/14 00:26:27;;;;;;;;;;;;;;;13.23;91.62;101484.34;5000194;28;19940;-71
2022/10/14 00:28:52;;;;;;;;;;;;;;;13.24;91.58;101485.25;5003364;28;19917;-71
2022/10/14 00:31:17;;;;;;;;;;;;;;;13.24;91.64;101480.03;5000534;28;20388;-71
2022/10/14 00:33:43;;;;;;;;;;;;;;;13.23;91.53;101475.63;4983546;28;19925;-71
2022/10/14 00:36:10;;;;;;;;;;;;;;;13.22;91.61;101474.75;4999542;28;19922;-71
2022/10/14 00:38:36;;;;;;;;;;;;;;;13.21;91.64;101472.13;5003033;28;19917;-73
2022/10/14 00:41:02;;;;;;;;;;;;;;;13.20;91.74;101468.59;4999970;28;19925;-73
2022/10/14 00:43:27;;;;;;;;;;;;;;;13.21;91.63;101465.13;5001172;28;19928;-73
2022/10/14 00:45:53;;;;;;;;;;;;;;;13.19;91.66;101460.72;4999337;28;19926;-73
2022/10/14 00:48:20;;;;;;;;;;;;;;;13.17;91.52;101458.06;5000644;28;19917;-73
2022/10/14 00:50:47;;;;;;;;;;;;;;;13.17;91.62;101459.81;4983994;28;20451;-73
2022/10/14 00:53:13;;;;;;;;;;;;;;;13.14;91.72;101451.88;4999843;28;19909;-73
2022/10/14 00:55:38;;;;;;;;;;;;;;;13.11;91.70;101454.44;5000008;28;19921;-73
2022/10/14 00:58:04;;;;;;;;;;;;;;;13.09;91.88;101450.88;4999586;28;20285;-73
2022/10/14 01:00:29;;;;;;;;;;;;;;;13.07;91.94;101449.97;4998499;28;20463;-72
2022/10/14 01:02:55;;;;;;;;;;;;;;;13.02;92.06;101440.28;5000748;28;19921;-73
2022/10/14 01:05:21;;;;;;;;;;;;;;;13.00;92.08;101439.34;5002786;28;19949;-73
2022/10/14 01:07:46;;;;;;;;;;;;;;;12.99;92.19;101437.59;5006092;28;19925;-71
2022/10/14 01:10:22;;;;;;;;;;;;;;;12.99;92.11;101435.00;5003810;28;20341;-71
2022/10/14 01:12:50;;;;;;;;;;;;;;;13.00;92.23;101438.47;5003635;28;20035;-71
2022/10/14 01:15:27;;;;;;;;;;;;;;;13.01;92.20;101441.13;4999191;28;19920;-71
2022/10/14 01:18:03;;;;;;;;;;;;;;;13.01;92.11;101437.63;4989425;28;20312;-71
2022/10/14 01:20:31;;;;;;;;;;;;;;;13.00;92.09;101425.41;4986733;28;20411;-71
2022/10/14 01:23:11;;;;;;;;;;;;;;;12.99;92.32;101426.22;5002363;28;19933;-71
2022/10/14 01:25:52;;;;;;;;;;;;;;;13.00;92.30;101414.94;5004747;28;19999;-71
2022/10/14 01:28:20;;;;;;;;;;;;;;;12.97;92.27;101405.28;5002226;28;19917;-71
2022/10/14 01:30:54;;;;;;;;;;;;;;;12.96;92.39;101400.00;4999559;28;19928;-71
2022/10/14 01:33:22;;;;;;;;;;;;;;;12.95;92.38;101399.13;5003605;28;20369;-71
2022/10/14 01:35:55;;;;;;;;;;;;;;;12.95;92.39;101393.03;5000487;28;19925;-71
2022/10/14 01:38:32;;;;;;;;;;;;;;;12.94;92.44;101393.88;5000575;28;19999;-73
2022/10/14 01:41:13;;;;;;;;;;;;;;;12.91;92.54;101386.84;4997340;28;19921;-73
2022/10/14 01:43:39;;;;;;;;;;;;;;;12.91;92.65;101391.19;4997542;28;19917;-73
2022/10/14 01:46:05;;;;;;;;;;;;;;;12.91;92.56;101385.97;4980335;28;19953;-73
2022/10/14 01:48:32;;;;;;;;;;;;;;;12.89;92.68;101375.47;5001858;28;19964;-73
2022/10/14 01:50:59;;;;;;;;;;;;;;;12.88;92.81;101381.53;5005557;28;19910;-73
2022/10/14 01:53:28;;;;;;;;;;;;;;;12.87;92.86;101379.75;5001647;28;19928;-73
2022/10/14 01:55:54;;;;;;;;;;;;;;;12.85;92.80;101376.25;5002079;28;19935;-73
2022/10/14 01:58:21;;;;;;;;;;;;;;;12.84;92.85;101377.06;5004968;28;19978;-73
2022/10/14 02:00:46;;;;;;;;;;;;;;;12.83;92.97;101372.69;5001921;28;19932;-73
2022/10/14 02:03:12;;;;;;;;;;;;;;;12.82;93.07;101374.44;5002588;28;19917;-73
2022/10/14 02:05:56;;;;;;;;;;;;;;;12.82;92.97;101377.03;5002580;28;20315;-73
2022/10/14 02:08:32;;;;;;;;;;;;;;;12.83;93.02;101367.47;5004072;28;20381;-73
2022/10/14 02:10:57;;;;;;;;;;;;;;;12.84;93.21;101374.47;4996717;28;19927;-73
2022/10/14 02:13:23;;;;;;;;;;;;;;;12.85;93.09;101378.84;5001271;28;19925;-72
2022/10/14 02:15:54;;;;;;;;;;;;;;;12.83;93.30;101368.38;4981864;28;19921;-72
2022/10/14 02:18:25;;;;;;;;;;;;;;;12.83;93.40;101372.69;5001225;28;20024;-73
2022/10/14 02:20:50;;;;;;;;;;;;;;;12.82;93.37;101360.47;5001890;28;19921;-73
2022/10/14 02:23:21;;;;;;;;;;;;;;;12.82;93.34;101355.25;5001088;28;19969;-72
2022/10/14 02:25:48;;;;;;;;;;;;;;;12.81;93.38;101366.56;4985535;28;20004;-73
2022/10/14 02:28:16;;;;;;;;;;;;;;;12.82;93.36;101360.47;5002010;28;19909;-73
2022/10/14 02:30:44;;;;;;;;;;;;;;;12.82;93.40;101360.47;4984062;28;20392;-73
2022/10/14 02:33:09;;;;;;;;;;;;;;;12.82;93.56;101360.47;5002230;28;19933;-73
2022/10/14 02:35:35;;;;;;;;;;;;;;;12.84;93.50;101358.78;5003493;28;19924;-73
2022/10/14 02:38:01;;;;;;;;;;;;;;;12.85;93.63;101358.81;4987131;28;19925;-73
2022/10/14 02:40:36;;;;;;;;;;;;;;;12.85;93.51;101358.81;5006723;28;20385;-73
2022/10/14 02:43:01;;;;;;;;;;;;;;;12.86;93.55;101357.06;5004363;28;19917;-73
2022/10/14 02:45:26;;;;;;;;;;;;;;;12.85;93.58;101360.53;4998103;28;19909;-73
2022/10/14 02:47:52;;;;;;;;;;;;;;;12.85;93.65;101355.31;4999994;28;20296;-71
2022/10/14 02:50:18;;;;;;;;;;;;;;;12.84;93.60;101353.53;4998122;28;19929;-71
2022/10/14 02:52:43;;;;;;;;;;;;;;;12.84;93.63;101346.56;4979765;28;19925;-71
2022/10/14 02:55:08;;;;;;;;;;;;;;;12.86;93.87;101347.50;4995140;28;20734;-71
2022/10/14 02:57:34;;;;;;;;;;;;;;;12.86;93.86;101341.38;4998967;28;20381;-71
2022/10/14 02:59:59;;;;;;;;;;;;;;;12.85;93.89;101344.84;4997618;28;21133;-71
2022/10/14 03:02:24;;;;;;;;;;;;;;;12.85;93.82;101337.00;4997357;28;19925;-71
2022/10/14 03:04:49;;;;;;;;;;;;;;;12.86;94.26;101330.91;4997220;28;19909;-71
2022/10/14 03:07:14;;;;;;;;;;;;;;;12.85;94.02;101331.78;4997086;28;20242;-71
2022/10/14 03:09:39;;;;;;;;;;;;;;;12.87;94.09;101330.97;5000918;28;19921;-71
2022/10/14 03:12:05;;;;;;;;;;;;;;;12.86;94.28;101326.59;4996228;28;19933;-71
2022/10/14 03:14:30;;;;;;;;;;;;;;;12.86;94.40;101321.34;4996488;28;20502;-71
2022/10/14 03:16:56;;;;;;;;;;;;;;;12.86;94.13;101315.22;4997636;28;19914;-71
2022/10/14 03:19:21;;;;;;;;;;;;;;;12.87;94.57;101314.38;4999276;28;19956;-71
2022/10/14 03:21:47;;;;;;;;;;;;;;;12.88;94.48;101313.53;4998387;28;19922;-71
2022/10/14 03:24:13;;;;;;;;;;;;;;;12.87;94.50;101306.53;4996194;28;20381;-71
2022/10/14 03:26:38;;;;;;;;;;;;;;;12.88;94.48;101308.31;4998191;28;19917;-71
2022/10/14 03:29:03;;;;;;;;;;;;;;;12.89;94.26;101310.06;4997717;28;19972;-71
2022/10/14 03:31:28;;;;;;;;;;;;;;;12.90;94.44;101305.72;4997007;28;20673;-71
2022/10/14 03:33:54;;;;;;;;;;;;;;;12.91;94.52;101305.75;4997086;28;19918;-71
2022/10/14 03:36:19;;;;;;;;;;;;;;;12.92;94.52;101304.91;4997342;28;20085;-71
2022/10/14 03:38:45;;;;;;;;;;;;;;;12.93;94.48;101303.16;4998663;28;20367;-71
2022/10/14 03:41:10;;;;;;;;;;;;;;;12.92;94.53;101294.44;4998757;28;19961;-71
2022/10/14 03:43:35;;;;;;;;;;;;;;;12.91;94.60;101297.91;4997964;28;19925;-71
2022/10/14 03:46:00;;;;;;;;;;;;;;;12.91;94.56;101295.28;4998600;28;20677;-71
2022/10/14 03:48:25;;;;;;;;;;;;;;;12.92;94.62;101289.22;4999257;28;19924;-71
2022/10/14 03:50:51;;;;;;;;;;;;;;;12.93;94.60;101285.72;5004616;28;19917;-71
2022/10/14 03:53:16;;;;;;;;;;;;;;;12.95;94.65;101284.03;5001179;28;19917;-71
2022/10/14 03:55:41;;;;;;;;;;;;;;;12.98;94.63;101283.22;5002124;28;20017;-71
2022/10/14 03:58:07;;;;;;;;;;;;;;;12.98;94.62;101281.50;5002003;28;19936;-71
2022/10/14 04:00:34;;;;;;;;;;;;;;;12.98;94.57;101280.63;4997090;28;19929;-71
2022/10/14 04:02:59;;;;;;;;;;;;;;;13.00;94.74;101285.00;4995742;28;20249;-71
2022/10/14 04:05:24;;;;;;;;;;;;;;;13.00;94.49;101269.31;4996541;28;20009;-71
2022/10/14 04:07:50;;;;;;;;;;;;;;;13.02;94.47;101272.84;4998498;28;19926;-71
2022/10/14 04:10:15;;;;;;;;;;;;;;;13.04;94.61;101267.66;4995706;28;19921;-71
2022/10/14 04:12:42;;;;;;;;;;;;;;;13.05;94.48;101270.31;4995879;28;20208;-71
2022/10/14 04:15:08;;;;;;;;;;;;;;;13.07;94.44;101274.69;4996227;28;20480;-71
2022/10/14 04:17:33;;;;;;;;;;;;;;;13.07;94.36;101266.84;4995414;28;19930;-73
2022/10/14 04:19:58;;;;;;;;;;;;;;;13.08;94.46;101265.97;4994760;28;19925;-73
2022/10/14 04:22:23;;;;;;;;;;;;;;;13.09;94.46;101270.34;4998476;28;20307;-73
2022/10/14 04:24:49;;;;;;;;;;;;;;;13.08;94.44;101263.34;4998383;28;19921;-72
2022/10/14 04:27:14;;;;;;;;;;;;;;;13.08;94.37;101264.25;4998076;28;19956;-72
2022/10/14 04:29:39;;;;;;;;;;;;;;;13.07;94.50;101264.22;4997172;28;19921;-72
2022/10/14 04:32:04;;;;;;;;;;;;;;;13.05;94.82;101259.84;4995866;28;19943;-72
2022/10/14 04:34:29;;;;;;;;;;;;;;;13.02;94.66;101254.53;4996418;28;20282;-72
2022/10/14 04:36:55;;;;;;;;;;;;;;;13.02;94.67;101254.53;4996680;28;20402;-72
2022/10/14 04:39:20;;;;;;;;;;;;;;;13.01;94.72;101252.78;4999178;28;20463;-71
2022/10/14 04:41:45;;;;;;;;;;;;;;;13.01;94.94;101257.13;5004756;28;20401;-72
2022/10/14 04:44:10;;;;;;;;;;;;;;;13.00;94.84;101242.28;4998757;28;20035;-72
2022/10/14 04:46:37;;;;;;;;;;;;;;;12.97;94.82;101248.31;4999123;28;21476;-71
2022/10/14 04:49:02;;;;;;;;;;;;;;;12.97;95.03;101245.72;4999738;28;19918;-71
2022/10/14 04:51:27;;;;;;;;;;;;;;;12.97;95.08;101244.84;5005339;28;20292;-71
2022/10/14 04:53:53;;;;;;;;;;;;;;;12.97;95.24;101245.72;5003205;28;20016;-70
2022/10/14 04:56:18;;;;;;;;;;;;;;;12.96;94.94;101230.88;5006424;28;20008;-71
2022/10/14 04:58:43;;;;;;;;;;;;;;;12.96;95.18;101235.22;5002585;28;19922;-70
2022/10/14 05:01:08;;;;;;;;;;;;;;;12.96;95.26;101232.59;4997542;28;19918;-71
2022/10/14 05:03:33;;;;;;;;;;;;;;;12.96;95.48;101237.84;5008066;28;19940;-71
2022/10/14 05:05:59;;;;;;;;;;;;;;;12.96;95.35;101233.50;5008054;28;20303;-70
2022/10/14 05:08:24;;;;;;;;;;;;;;;12.96;95.44;101233.50;5007936;28;19918;-70
2022/10/14 05:10:49;;;;;;;;;;;;;;;12.95;95.45;101223.00;4988434;28;20377;-71
2022/10/14 05:13:15;;;;;;;;;;;;;;;12.95;95.49;101220.41;5002383;28;19928;-70
2022/10/14 05:15:40;;;;;;;;;;;;;;;12.96;95.73;101217.81;5005950;28;19918;-70
2022/10/14 05:18:05;;;;;;;;;;;;;;;12.96;95.65;101224.75;4998049;28;19924;-72
2022/10/14 05:20:30;;;;;;;;;;;;;;;12.95;95.82;101209.94;5003260;28;21614;-72
2022/10/14 05:22:56;;;;;;;;;;;;;;;12.96;96.04;101211.69;5003763;28;20361;-72
2022/10/14 05:25:21;;;;;;;;;;;;;;;12.95;96.03;101212.56;5005629;28;20589;-72
2022/10/14 05:27:46;;;;;;;;;;;;;;;12.94;96.04;101206.41;5004147;28;19917;-72
2022/10/14 05:30:11;;;;;;;;;;;;;;;12.93;95.90;101204.66;5006145;28;19917;-72
2022/10/14 05:32:37;;;;;;;;;;;;;;;12.94;96.08;101195.94;5004557;28;19921;-72
2022/10/14 05:35:03;;;;;;;;;;;;;;;12.95;96.11;101191.63;5004983;28;19921;-72
2022/10/14 05:37:28;;;;;;;;;;;;;;;12.94;96.27;101193.34;5002993;28;20480;-72
2022/10/14 05:39:54;;;;;;;;;;;;;;;12.94;96.28;101185.50;5004385;28;20016;-72
2022/10/14 05:42:19;;;;;;;;;;;;;;;12.96;96.35;101190.75;5009339;28;19979;-72
2022/10/14 05:44:44;;;;;;;;;;;;;;;12.96;96.91;101185.53;5007406;28;19917;-72
2022/10/14 05:47:09;;;;;;;;;;;;;;;12.97;96.34;101179.44;5006560;28;20011;-72
2022/10/14 05:49:35;;;;;;;;;;;;;;;12.98;96.40;101182.09;5004169;28;20462;-72
2022/10/14 05:52:00;;;;;;;;;;;;;;;12.97;96.72;101182.94;5001469;28;19971;-72
2022/10/14 05:54:25;;;;;;;;;;;;;;;12.99;96.75;101181.25;4991652;28;19934;-71
2022/10/14 05:56:50;;;;;;;;;;;;;;;12.98;97.13;101173.38;5003510;28;19939;-71
2022/10/14 05:59:15;;;;;;;;;;;;;;;12.97;97.08;101169.84;5011728;28;20278;-70
2022/10/14 06:01:41;;;;;;;;;;;;;;;12.98;97.02;101165.53;5010777;28;20323;-70
2022/10/14 06:04:07;;;;;;;;;;;;;;;12.98;96.91;101170.75;5011025;28;19925;-71
2022/10/14 06:06:32;;;;;;;;;;;;;;;12.98;96.93;101173.38;5011290;28;19928;-71
2022/10/14 06:08:57;;;;;;;;;;;;;;;12.97;97.43;101169.84;5011339;28;19914;-72
2022/10/14 06:11:22;;;;;;;;;;;;;;;12.98;97.25;101170.75;5011548;28;19924;-71
2022/10/14 06:13:47;;;;;;;;;;;;;;;12.98;97.09;101171.63;5011933;28;19925;-71
2022/10/14 06:16:13;;;;;;;;;;;;;;;12.99;96.90;101160.31;5009797;28;19925;-71
2022/10/14 06:18:38;;;;;;;;;;;;;;;13.00;96.98;101167.28;5011153;28;19979;-70
2022/10/14 06:21:04;;;;;;;;;;;;;;;13.01;97.07;101160.34;5010942;28;20339;-71
2022/10/14 06:23:29;;;;;;;;;;;;;;;13.02;97.40;101160.38;5012061;28;19918;-71
2022/10/14 06:25:54;;;;;;;;;;;;;;;13.01;97.31;101153.38;5012500;28;19920;-71
2022/10/14 06:28:20;;;;;;;;;;;;;;;13.02;97.05;101149.00;5010903;28;19940;-70
2022/10/14 06:30:48;;;;;;;;;;;;;;;13.03;97.40;101161.25;5010683;28;19925;-70
2022/10/14 06:33:13;;;;;;;;;;;;;;;13.03;97.24;101164.75;5011002;28;20374;-71
2022/10/14 06:35:39;;;;;;;;;;;;;;;13.04;97.71;101156.03;5012113;28;19928;-70
2022/10/14 06:38:04;;;;;;;;;;;;;;;13.04;97.32;101156.03;5010494;28;19917;-70
2022/10/14 06:40:29;;;;;;;;;;;;;;;13.05;97.37;101154.31;4993582;28;20468;-71
2022/10/14 06:42:57;;;;;;;;;;;;;;;13.07;97.26;101159.59;4993976;28;19939;-71
2022/10/14 06:45:22;;;;;;;;;;;;;;;13.05;97.58;101152.56;5006350;28;19920;-72
2022/10/14 06:47:47;;;;;;;;;;;;;;;13.07;97.22;101154.34;5004579;28;19921;-73
2022/10/14 06:50:12;;;;;;;;;;;;;;;13.07;97.44;101150.00;5008044;28;19926;-73
2022/10/14 06:52:37;;;;;;;;;;;;;;;13.09;97.33;101150.00;5008748;28;19917;-73
2022/10/14 06:55:03;;;;;;;;;;;;;;;13.09;97.45;101145.66;5011334;28;19921;-72
2022/10/14 06:57:28;;;;;;;;;;;;;;;13.09;98.08;101145.66;5004031;28;19921;-72
2022/10/14 06:59:53;;;;;;;;;;;;;;;13.12;97.72;101144.84;5003049;28;19925;-72
2022/10/14 07:02:18;;;;;;;;;;;;;;;13.11;97.55;101143.09;5003629;28;19925;-72
2022/10/14 07:04:44;;;;;;;;;;;;;;;13.13;97.81;101141.38;5001519;28;20389;-72
2022/10/14 07:07:09;;;;;;;;;;;;;;;13.13;97.33;101131.78;5001197;28;19983;-72
2022/10/14 07:09:34;;;;;;;;;;;;;;;13.14;97.79;101135.28;5002243;28;19925;-72
2022/10/14 07:12:00;;;;;;;;;;;;;;;13.14;97.53;101124.81;5003863;28;20369;-72
2022/10/14 07:14:25;;;;;;;;;;;;;;;13.16;97.85;101126.59;5003106;28;20382;-73
2022/10/14 07:16:52;;;;;;;;;;;;;;;13.17;97.74;101124.88;5006677;28;20023;-72
2022/10/14 07:19:17;;;;;;;;;;;;;;;13.17;97.73;101122.25;5008903;28;20056;-72
2022/10/14 07:21:45;;;;;;;;;;;;;;;13.18;97.55;101135.38;5006087;28;20414;-72
2022/10/14 07:24:10;;;;;;;;;;;;;;;13.20;97.88;101138.88;5008484;28;19996;-72
2022/10/14 07:26:35;;;;;;;;;;;;;;;13.22;97.74;101144.13;4993256;28;20032;-69
2022/10/14 07:29:02;;;;;;;;;;;;;;;13.25;97.69;101151.16;5006430;28;19925;-69
2022/10/14 07:31:28;;;;;;;;;;;;;;;13.26;97.54;101151.19;5007453;28;20304;-69
2022/10/14 07:33:54;;;;;;;;;;;;;;;13.28;97.84;101145.97;5004751;28;19921;-69
2022/10/14 07:36:19;;;;;;;;;;;;;;;13.29;98.75;101153.00;5005424;28;19956;-69
2022/10/14 07:38:44;;;;;;;;;;;;;;;13.30;98.17;101142.53;5007738;28;19918;-69
2022/10/14 07:41:15;;;;;;;;;;;;;;;13.31;97.79;101148.66;5003608;28;19928;-69
2022/10/14 07:43:41;;;;;;;;;;;;;;;13.33;97.95;101139.97;5009015;28;19918;-70
2022/10/14 07:46:07;;;;;;;;;;;;;;;13.34;98.03;101141.78;5006086;28;19964;-69
2022/10/14 07:48:32;;;;;;;;;;;;;;;13.35;97.85;101138.31;4990616;28;19962;-69
2022/10/14 07:50:58;;;;;;;;;;;;;;;13.36;97.86;101140.06;5008856;28;19917;-69
2022/10/14 07:53:23;;;;;;;;;;;;;;;13.37;97.78;101139.22;5008575;28;19925;-68
2022/10/14 07:55:52;;;;;;;;;;;;;;;13.40;97.79;101141.00;5010287;28;19976;-69
2022/10/14 07:58:21;;;;;;;;;;;;;;;13.41;97.82;101134.03;5008182;28;19917;-73
2022/10/14 08:00:46;;;;;;;;;;;;;;;13.42;97.62;101136.66;5004445;28;19942;-73
2022/10/14 08:03:12;;;;;;;;;;;;;;;13.43;98.14;101132.31;5006731;28;20005;-72
2022/10/14 08:05:37;;;;;;;;;;;;;;;13.46;98.41;101129.75;5008686;28;19918;-72
2022/10/14 08:08:02;;;;;;;;;;;;;;;13.49;98.01;101129.81;5006555;28;20379;-73
2022/10/14 08:10:27;;;;;;;;;;;;;;;13.52;98.22;101127.22;5005205;28;19917;-72
2022/10/14 08:12:52;;;;;;;;;;;;;;;13.53;98.04;101127.25;5008079;28;19922;-73
2022/10/14 08:15:18;;;;;;;;;;;;;;;13.55;98.02;101124.66;5009465;28;19920;-73
2022/10/14 08:17:43;;;;;;;;;;;;;;;13.57;97.92;101126.44;5005532;28;20008;-74
2022/10/14 08:20:08;;;;;;;;;;;;;;;13.61;97.86;101122.13;5007738;28;20397;-73
2022/10/14 08:22:33;;;;;;;;;;;;;;;13.63;97.91;101112.56;5003870;28;19917;-74
2022/10/14 08:24:58;;;;;;;;;;;;;;;13.65;97.90;101105.63;5010296;28;19944;-73
2022/10/14 08:27:25;;;;;;;;;;;;;;;13.67;98.15;101108.25;5008329;28;19929;-70
2022/10/14 08:29:50;;;;;;;;;;;;;;;13.70;97.72;101114.44;5005015;28;20352;-69
2022/10/14 08:32:15;;;;;;;;;;;;;;;13.72;97.92;101112.69;5006690;28;20377;-69
2022/10/14 08:34:41;;;;;;;;;;;;;;;13.76;98.17;101117.97;5008660;28;19921;-69
2022/10/14 08:37:09;;;;;;;;;;;;;;;13.78;98.06;101121.53;5008768;28;19917;-69
2022/10/14 08:39:34;;;;;;;;;;;;;;;13.80;97.73;101122.41;5004058;28;19929;-68
2022/10/14 08:42:02;;;;;;;;;;;;;;;13.82;98.23;101123.34;5008174;28;19921;-69
2022/10/14 08:44:46;;;;;;;;;;;;;;;13.83;97.67;101117.22;5008049;28;19917;-69
2022/10/14 08:47:14;;;;;;;;;;;;;;;13.85;97.72;101119.00;5007846;28;19914;-69
2022/10/14 08:49:58;;;;;;;;;;;;;;;13.87;97.67;101113.78;5003912;28;20402;-69
2022/10/14 08:52:37;;;;;;;;;;;;;;;13.90;97.94;101121.69;5003182;28;19921;-68
2022/10/14 08:55:13;;;;;;;;;;;;;;;13.92;98.27;101109.50;5008674;28;19918;-68
2022/10/14 08:57:45;;;;;;;;;;;;;;;13.95;97.67;101119.13;5010406;28;19973;-71
2022/10/14 09:00:11;;;;;;;;;;;;;;;13.98;97.56;101112.19;5008691;28;19929;-71
2022/10/14 09:02:43;;;;;;;;;;;;;;;13.99;97.38;101110.44;5009061;28;19921;-70
2022/10/14 09:05:12;;;;;;;;;;;;;;;13.99;97.53;101116.59;5007143;28;19940;-71
2022/10/14 09:07:38;;;;;;;;;;;;;;;14.03;97.55;101107.91;5010199;28;19924;-71
2022/10/14 09:10:06;;;;;;;;;;;;;;;14.06;97.82;101102.72;5010199;28;19917;-71
2022/10/14 09:12:36;;;;;;;;;;;;;;;14.08;97.63;101100.97;5008121;28;20189;-71
2022/10/14 09:15:25;;;;;;;;;;;;;;;14.09;97.97;101100.13;5010046;28;19917;-71
2022/10/14 09:18:09;;;;;;;;;;;;;;;14.12;97.81;101101.03;5010175;28;19913;-71
2022/10/14 09:20:34;;;;;;;;;;;;;;;14.13;97.66;101098.41;5010054;28;19951;-71
2022/10/14 09:23:04;;;;;;;;;;;;;;;14.15;97.55;101095.81;5007186;28;20481;-71
2022/10/14 09:25:32;;;;;;;;;;;;;;;14.17;97.51;101096.72;5009435;28;19917;-71
2022/10/14 09:27:57;;;;;;;;;;;;;;;14.18;97.78;101094.13;5013067;28;19914;-68
2022/10/14 09:30:22;;;;;;;;;;;;;;;14.20;97.60;101089.78;5013279;28;20411;-68
2022/10/14 09:32:54;;;;;;;;;;;;;;;14.22;97.58;101090.69;5011387;28;19925;-68
2022/10/14 09:35:22;;;;;;;;;;;;;;;14.23;97.35;101088.94;5013365;28;19925;-68
2022/10/14 09:37:48;;;;;;;;;;;;;;;14.24;97.77;101088.09;5013441;28;19913;-68
2022/10/14 09:40:16;;;;;;;;;;;;;;;14.24;97.24;101083.72;5013056;28;19979;-68
2022/10/14 09:42:48;;;;;;;;;;;;;;;14.26;97.31;101083.72;5010401;28;19994;-68
2022/10/14 09:45:15;;;;;;;;;;;;;;;14.28;97.41;101087.28;5011998;28;19976;-68
2022/10/14 09:47:55;;;;;;;;;;;;;;;14.30;97.17;101089.91;5013246;28;19924;-68
2022/10/14 09:50:22;;;;;;;;;;;;;;;14.30;97.37;101085.53;5013013;28;20443;-68
2022/10/14 09:52:51;;;;;;;;;;;;;;;14.32;97.38;101082.94;5010571;28;19936;-68
2022/10/14 09:55:19;;;;;;;;;;;;;;;14.33;97.66;101082.06;5012731;28;20397;-68
2022/10/14 09:57:44;;;;;;;;;;;;;;;14.33;97.56;101080.31;5012972;28;19913;-71
2022/10/14 10:00:23;;;;;;;;;;;;;;;14.35;97.67;101075.09;5012862;28;19917;-71
2022/10/14 10:02:50;;;;;;;;;;;;;;;14.37;97.41;101076.00;5009663;28;20332;-71
2022/10/14 10:05:23;;;;;;;;;;;;;;;14.36;98.04;101069.88;5012111;28;19917;-71
2022/10/14 10:08:14;;;;;;;;;;;;;;;14.39;97.50;101071.66;5012776;28;19948;-71
2022/10/14 10:10:40;;;;;;;;;;;;;;;14.39;97.51;101069.91;5011989;28;20454;-71
2022/10/14 10:13:19;;;;;;;;;;;;;;;14.39;97.72;101071.66;5011631;28;19956;-71
2022/10/14 10:15:55;;;;;;;;;;;;;;;14.41;97.77;101070.81;5012124;28;20381;-70
2022/10/14 10:18:22;;;;;;;;;;;;;;;14.41;97.89;101064.69;5011183;28;19917;-71
2022/10/14 10:21:01;;;;;;;;;;;;;;;14.40;97.65;101063.81;5008711;28;20067;-72
2022/10/14 10:23:27;;;;;;;;;;;;;;;14.41;97.79;101062.94;5010612;28;20027;-71
2022/10/14 10:25:52;;;;;;;;;;;;;;;14.41;97.92;101057.72;5010223;28;19917;-71
2022/10/14 10:28:25;;;;;;;;;;;;;;;14.42;97.92;101056.84;5012495;28;19918;-71
2022/10/14 10:31:16;;;;;;;;;;;;;;;14.43;98.11;101053.34;5005931;28;19939;-71
2022/10/14 10:33:52;;;;;;;;;;;;;;;14.42;97.94;101059.47;5006596;28;19971;-71
2022/10/14 10:36:18;;;;;;;;;;;;;;;14.42;98.20;101051.63;5010642;28;20053;-71
2022/10/14 10:38:58;;;;;;;;;;;;;;;14.43;98.26;101049.84;5009976;28;19917;-71
2022/10/14 10:41:26;;;;;;;;;;;;;;;14.44;97.99;101041.16;5009148;28;20293;-71
2022/10/14 10:44:10;;;;;;;;;;;;;;;14.46;98.30;101043.78;5010437;28;19923;-71
2022/10/14 10:47:04;;;;;;;;;;;;;;;14.47;98.14;101040.28;5010699;28;19925;-71
2022/10/14 10:49:55;;;;;;;;;;;;;;;14.50;98.43;101045.56;5007237;28;20026;-71
2022/10/14 10:52:40;;;;;;;;;;;;;;;14.52;98.45;101041.22;5005644;28;20572;-71
2022/10/14 10:55:05;;;;;;;;;;;;;;;14.52;98.29;101042.06;5009125;28;19924;-71
2022/10/14 10:57:30;;;;;;;;;;;;;;;14.54;98.01;101036.84;5006859;28;20333;-69
2022/10/14 11:00:02;;;;;;;;;;;;;;;14.56;98.21;101035.13;5008830;28;19917;-69
2022/10/14 11:02:44;;;;;;;;;;;;;;;14.57;97.97;101031.63;5010949;28;20248;-69
2022/10/14 11:05:28;;;;;;;;;;;;;;;14.59;98.76;101027.31;5009773;28;19928;-70
2022/10/14 11:13:31;;;;;;;;;;;;;;;14.65;98.26;101026.53;5005784;28;19968;-70
2022/10/14 11:16:01;;;;;;;;;;;;;;;14.66;98.39;101020.41;5008283;28;19960;-69
2022/10/14 11:18:33;;;;;;;;;;;;;;;14.67;98.81;101016.91;5004154;28;20423;-69
2022/10/14 11:21:04;;;;;;;;;;;;;;;14.67;98.51;101017.81;5008028;28;19925;-69
2022/10/14 11:23:36;;;;;;;;;;;;;;;14.68;98.75;101013.44;5010796;28;19960;-69
2022/10/14 11:26:09;;;;;;;;;;;;;;;14.70;98.30;101016.94;5017394;28;19917;-70
2022/10/14 11:28:53;;;;;;;;;;;;;;;14.71;99.03;101022.19;5009845;28;19917;-70
2022/10/14 11:31:39;;;;;;;;;;;;;;;14.72;98.73;101021.34;5009411;28;19956;-69
2022/10/14 11:34:12;;;;;;;;;;;;;;;14.73;98.56;101009.09;5008850;28;20369;-69
2022/10/14 11:37:01;;;;;;;;;;;;;;;14.73;98.69;101007.38;5010098;28;19921;-71
2022/10/14 11:39:43;;;;;;;;;;;;;;;14.71;99.03;101009.06;5010233;28;19925;-71
2022/10/14 11:42:17;;;;;;;;;;;;;;;14.72;98.69;101007.34;5004762;28;19922;-71
2022/10/14 11:44:43;;;;;;;;;;;;;;;14.73;98.58;100990.72;5006856;28;19917;-71
2022/10/14 11:47:14;;;;;;;;;;;;;;;14.75;98.86;100983.78;5010416;28;19972;-71
2022/10/14 11:49:44;;;;;;;;;;;;;;;14.75;98.72;100975.91;4989374;28;19913;-71
2022/10/14 11:52:13;;;;;;;;;;;;;;;14.78;98.97;100968.06;5008563;28;19924;-71
2022/10/14 11:54:47;;;;;;;;;;;;;;;14.80;98.93;100970.69;5004715;28;19921;-71
2022/10/14 11:57:26;;;;;;;;;;;;;;;14.80;98.76;100968.06;5007473;28;19961;-72
2022/10/14 11:59:58;;;;;;;;;;;;;;;14.80;98.63;100958.44;5006271;28;19979;-71
2022/10/14 12:02:41;;;;;;;;;;;;;;;14.79;99.26;100964.56;5007864;28;19921;-71
2022/10/14 12:05:06;;;;;;;;;;;;;;;14.78;98.77;100958.44;5008390;28;19925;-71
2022/10/14 12:07:36;;;;;;;;;;;;;;;14.79;99.00;100956.69;5008480;28;19918;-69
2022/10/14 12:10:11;;;;;;;;;;;;;;;14.82;98.74;100958.47;5002879;28;21768;-70
2022/10/14 12:12:37;;;;;;;;;;;;;;;14.84;98.62;100951.50;5008646;28;19956;-69
2022/10/14 12:15:09;;;;;;;;;;;;;;;14.85;98.74;100942.75;5000200;28;20392;-70
2022/10/14 12:17:43;;;;;;;;;;;;;;;14.86;99.16;100947.13;5006795;28;20051;-67
2022/10/14 12:20:25;;;;;;;;;;;;;;;14.86;99.02;100949.75;5010878;28;19949;-68
2022/10/14 12:22:51;;;;;;;;;;;;;;;14.86;98.89;100947.13;5009641;28;19921;-67
2022/10/14 12:25:19;;;;;;;;;;;;;;;14.88;98.73;100948.03;5009973;28;19913;-67
2022/10/14 12:27:45;;;;;;;;;;;;;;;14.89;98.95;100924.41;4992830;28;19947;-67
2022/10/14 12:30:30;;;;;;;;;;;;;;;14.92;99.27;100928.81;4991216;28;20286;-67
2022/10/14 12:33:07;;;;;;;;;;;;;;;14.94;98.79;100924.44;5005672;28;19972;-68
2022/10/14 12:35:50;;;;;;;;;;;;;;;14.94;98.89;100911.31;5009956;28;19921;-67
2022/10/14 12:38:16;;;;;;;;;;;;;;;14.95;98.82;100918.34;5010311;28;20408;-67
2022/10/14 12:40:41;;;;;;;;;;;;;;;14.94;99.34;100913.94;4992890;28;19928;-68
2022/10/14 12:43:17;;;;;;;;;;;;;;;14.92;98.91;100913.94;5012727;28;19927;-67
2022/10/14 12:46:00;;;;;;;;;;;;;;;14.93;98.98;100915.72;5009049;28;20000;-67
2022/10/14 12:48:28;;;;;;;;;;;;;;;14.95;99.20;100919.22;5009498;28;19917;-67